Time;durP1;ratioP1;P1;durP2;ratioP2;P2;SDS_P1;SDS_P2;PMS_P1;PMS_P2;Temp;Humidity;BMP_temperature;BMP_pressure;BME280_temperature;BME280_humidity;BME280_pressure;Samples;Min_cycle;Max_cycle;Signal;HPM_P1;HPM_P2
2022/06/14 00:01:04;;;;;;;;;;;;;;;9.83;100.00;98320.91;1764882;80;21075;-84
2022/06/14 00:03:48;;;;;;;;;;;;;;;9.79;100.00;98321.16;1747783;80;20504;-84
2022/06/14 00:06:32;;;;;;;;;;;;;;;9.76;100.00;98324.95;1760689;81;20478;-84
2022/06/14 00:08:59;;;;;;;;;;;;;;;9.76;100.00;98328.47;1750998;80;20227;-83
2022/06/14 00:11:26;;;;;;;;;;;;;;;9.76;100.00;98331.17;1781995;80;20165;-84
2022/06/14 00:13:53;;;;;;;;;;;;;;;9.75;100.00;98330.09;1782009;80;21148;-83
2022/06/14 00:16:19;;;;;;;;;;;;;;;9.73;100.00;98333.04;1781855;80;20156;-84
2022/06/14 00:18:46;;;;;;;;;;;;;;;9.71;100.00;98335.20;1781754;80;20144;-83
2022/06/14 00:21:13;;;;;;;;;;;;;;;9.73;100.00;98336.29;1782046;80;20206;-83
2022/06/14 00:23:39;;;;;;;;;;;;;;;9.74;100.00;98335.20;1781969;79;20163;-83
2022/06/14 00:26:04;;;;;;;;;;;;;;;9.76;100.00;98337.94;1775898;80;21146;-84
2022/06/14 00:28:31;;;;;;;;;;;;;;;9.70;100.00;98338.99;1739964;80;20225;-83
2022/06/14 00:30:59;;;;;;;;;;;;;;;9.68;100.00;98338.45;1780733;80;20184;-84
2022/06/14 00:33:25;;;;;;;;;;;;;;;9.65;100.00;98343.02;1781930;79;20140;-83
2022/06/14 00:36:02;;;;;;;;;;;;;;;9.66;100.00;98343.87;1782237;80;20156;-83
2022/06/14 00:38:28;;;;;;;;;;;;;;;9.60;100.00;98342.48;1781966;79;21056;-83
2022/06/14 00:40:57;;;;;;;;;;;;;;;9.57;100.00;98331.36;1775786;80;20253;-83
2022/06/14 00:43:23;;;;;;;;;;;;;;;9.55;100.00;98335.69;1780984;79;20200;-83
2022/06/14 00:45:53;;;;;;;;;;;;;;;9.56;100.00;98343.27;1775588;80;20762;-83
2022/06/14 00:48:26;;;;;;;;;;;;;;;9.54;100.00;98341.38;1781916;80;20208;-84
2022/06/14 00:51:02;;;;;;;;;;;;;;;9.55;100.00;98347.05;1748465;80;21065;-84
2022/06/14 00:53:43;;;;;;;;;;;;;;;9.57;100.00;98344.38;1747075;82;20173;-83
2022/06/14 00:56:25;;;;;;;;;;;;;;;9.58;100.00;98353.30;1738727;82;20414;-83
2022/06/14 00:58:54;;;;;;;;;;;;;;;9.56;100.00;98344.62;1732480;82;20637;-83
2022/06/14 01:01:26;;;;;;;;;;;;;;;9.60;100.00;98351.14;1771792;80;20220;-83
2022/06/14 01:03:55;;;;;;;;;;;;;;;9.58;100.00;98341.95;1747001;81;21156;-83
2022/06/14 01:06:27;;;;;;;;;;;;;;;9.54;100.00;98343.53;1778278;80;20133;-84
2022/06/14 01:08:57;;;;;;;;;;;;;;;9.53;100.00;98339.20;1775508;80;20488;-84
2022/06/14 01:11:35;;;;;;;;;;;;;;;9.57;100.00;98342.18;1781876;80;20201;-84
2022/06/14 01:14:01;;;;;;;;;;;;;;;9.51;100.00;98341.91;1780810;80;20203;-84
2022/06/14 01:16:29;;;;;;;;;;;;;;;9.49;100.00;98343.53;1752459;80;21126;-84
2022/06/14 01:18:55;;;;;;;;;;;;;;;9.47;100.00;98349.72;1783449;80;20499;-84
2022/06/14 01:21:21;;;;;;;;;;;;;;;9.47;100.00;98345.66;1770846;80;20257;-84
2022/06/14 01:23:46;;;;;;;;;;;;;;;9.51;100.00;98350.84;1776973;80;20226;-83
2022/06/14 01:26:15;;;;;;;;;;;;;;;9.52;100.00;98354.36;1780810;80;20167;-84
2022/06/14 01:28:42;;;;;;;;;;;;;;;9.52;100.00;98355.17;1778851;79;21854;-83
2022/06/14 01:31:08;;;;;;;;;;;;;;;9.56;100.00;98352.73;1778266;80;20161;-84
2022/06/14 01:33:42;;;;;;;;;;;;;;;9.55;100.00;98347.86;1781855;79;20194;-84
2022/06/14 01:36:10;;;;;;;;;;;;;;;9.52;100.00;98354.36;1782010;80;20211;-83
2022/06/14 01:38:36;;;;;;;;;;;;;;;9.52;100.00;98361.12;1781848;80;20207;-83
2022/06/14 01:41:18;;;;;;;;;;;;;;;9.48;100.00;98359.46;1782042;80;21140;-83
2022/06/14 01:44:21;;;;;;;;;;;;;;;9.50;100.00;98356.52;1779725;79;20164;-83
2022/06/14 01:47:05;;;;;;;;;;;;;;;9.53;100.00;98360.84;1760711;80;20175;-83
2022/06/14 01:52:51;;;;;;;;;;;;;;;9.51;100.00;98364.36;1774620;80;20201;-83
2022/06/14 01:55:39;;;;;;;;;;;;;;;9.52;100.00;98364.64;1782395;80;21061;-85
2022/06/14 01:58:26;;;;;;;;;;;;;;;9.54;100.00;98361.66;1781904;79;20526;-83
2022/06/14 02:01:12;;;;;;;;;;;;;;;9.58;100.00;98364.13;1749145;80;20167;-84
2022/06/14 02:06:56;;;;;;;;;;;;;;;9.62;100.00;98374.68;1767338;80;20191;-83
2022/06/14 02:09:53;;;;;;;;;;;;;;;9.66;100.00;98370.92;1747357;80;21176;-83
2022/06/14 02:12:22;;;;;;;;;;;;;;;9.67;100.00;98383.38;1767451;79;20183;-84
2022/06/14 02:14:54;;;;;;;;;;;;;;;9.68;100.00;98383.10;1782055;80;20964;-84
2022/06/14 02:17:30;;;;;;;;;;;;;;;9.72;100.00;98389.59;1781681;80;20199;-84
2022/06/14 02:19:59;;;;;;;;;;;;;;;9.66;100.00;98387.16;1770908;80;20220;-84
2022/06/14 02:22:31;;;;;;;;;;;;;;;9.67;100.00;98384.73;1766725;80;21761;-85
2022/06/14 02:25:06;;;;;;;;;;;;;;;9.71;100.00;98384.45;1767511;80;20239;-84
2022/06/14 02:27:45;;;;;;;;;;;;;;;9.74;100.00;98389.33;1781791;80;20222;-84
2022/06/14 02:30:20;;;;;;;;;;;;;;;9.74;100.00;98396.09;1781990;80;20196;-84
2022/06/14 02:32:52;;;;;;;;;;;;;;;9.76;100.00;98396.12;1781773;80;20446;-84
2022/06/14 02:35:24;;;;;;;;;;;;;;;9.77;100.00;98392.34;1781979;80;20588;-84
2022/06/14 02:37:53;;;;;;;;;;;;;;;9.81;100.00;98392.61;1745189;80;20167;-85
2022/06/14 02:40:26;;;;;;;;;;;;;;;9.85;100.00;98399.94;1771595;80;20195;-85
2022/06/14 02:42:55;;;;;;;;;;;;;;;9.83;100.00;98404.81;1781901;79;20137;-85
2022/06/14 02:45:25;;;;;;;;;;;;;;;9.84;100.00;98409.69;1776330;80;20187;-83
2022/06/14 02:48:00;;;;;;;;;;;;;;;9.86;100.00;98408.33;1780758;80;21059;-85
2022/06/14 02:50:47;;;;;;;;;;;;;;;9.94;100.00;98407.01;1781866;80;20168;-85
2022/06/14 02:53:23;;;;;;;;;;;;;;;9.95;100.00;98414.05;1737590;81;20122;-84
2022/06/14 02:55:54;;;;;;;;;;;;;;;9.98;100.00;98412.70;1779735;80;20799;-85
2022/06/14 02:58:53;;;;;;;;;;;;;;;9.99;100.00;98419.73;1778805;80;20191;-84
2022/06/14 03:01:48;;;;;;;;;;;;;;;10.02;100.00;98420.03;1782702;80;20200;-84
2022/06/14 03:04:38;;;;;;;;;;;;;;;10.07;100.00;98422.73;1771359;80;20275;-85
2022/06/14 03:07:32;;;;;;;;;;;;;;;10.09;100.00;98434.14;1767022;79;20192;-84
2022/06/14 03:10:17;;;;;;;;;;;;;;;10.15;100.00;98443.06;1775593;80;20207;-84
2022/06/14 03:13:20;;;;;;;;;;;;;;;10.18;100.00;98442.55;1781708;79;20192;-83
2022/06/14 03:16:20;;;;;;;;;;;;;;;10.30;100.00;98436.92;1779336;80;20184;-83
2022/06/14 03:19:20;;;;;;;;;;;;;;;10.36;100.00;98442.09;1781787;80;20184;-85
2022/06/14 03:22:19;;;;;;;;;;;;;;;10.38;100.00;98445.87;1782019;79;20180;-85
2022/06/14 03:24:48;;;;;;;;;;;;;;;10.41;100.00;98452.91;1748187;80;20140;-84
2022/06/14 03:27:18;;;;;;;;;;;;;;;10.48;100.00;98449.95;1781770;79;20188;-85
2022/06/14 03:29:47;;;;;;;;;;;;;;;10.57;100.00;98447.53;1768358;80;21854;-84
2022/06/14 03:32:16;;;;;;;;;;;;;;;10.62;100.00;98449.71;1765717;79;20147;-85
2022/06/14 03:34:54;;;;;;;;;;;;;;;10.72;100.00;98448.36;1773452;80;20148;-85
2022/06/14 03:37:20;;;;;;;;;;;;;;;10.79;100.00;98441.88;1768651;80;20223;-84
2022/06/14 03:39:52;;;;;;;;;;;;;;;10.86;100.00;98447.30;1769020;80;20207;-85
2022/06/14 03:42:18;;;;;;;;;;;;;;;10.91;100.00;98445.11;1781408;80;21306;-85
2022/06/14 03:44:44;;;;;;;;;;;;;;;10.96;100.00;98447.83;1781013;80;20186;-85
2022/06/14 03:47:14;;;;;;;;;;;;;;;11.05;100.00;98447.56;1781853;80;20298;-85
2022/06/14 03:49:42;;;;;;;;;;;;;;;11.09;100.00;98445.10;1782194;80;20163;-85
2022/06/14 03:52:27;;;;;;;;;;;;;;;11.17;100.00;98445.91;1781840;79;20171;-84
2022/06/14 03:55:16;;;;;;;;;;;;;;;11.35;100.00;98450.77;1758928;80;21807;-84
2022/06/14 03:57:48;;;;;;;;;;;;;;;11.47;100.00;98455.37;1759424;80;20641;-84
2022/06/14 04:00:42;;;;;;;;;;;;;;;11.57;100.00;98462.13;1778524;80;20159;-84
2022/06/14 04:03:17;;;;;;;;;;;;;;;11.68;100.00;98462.09;1742555;82;20206;-83
2022/06/14 04:05:58;;;;;;;;;;;;;;;11.78;100.00;98460.16;1712213;82;20188;-85
2022/06/14 04:08:54;;;;;;;;;;;;;;;11.85;100.00;98461.25;1726310;82;21103;-85
2022/06/14 04:11:51;;;;;;;;;;;;;;;11.91;100.00;98462.06;1781897;80;20152;-85
2022/06/14 04:14:37;;;;;;;;;;;;;;;11.95;100.00;98453.06;1775066;80;20223;-84
2022/06/14 04:17:12;;;;;;;;;;;;;;;12.00;100.00;98461.75;1782039;80;20212;-84
2022/06/14 04:20:02;;;;;;;;;;;;;;;12.08;100.00;98463.89;1783230;80;20211;-84
2022/06/14 04:22:46;;;;;;;;;;;;;;;12.18;100.00;98469.27;1781977;80;20990;-84
2022/06/14 04:25:19;;;;;;;;;;;;;;;12.25;100.00;98469.78;1781767;80;20187;-85
2022/06/14 04:27:51;;;;;;;;;;;;;;;12.34;100.00;98470.02;1779862;79;20183;-85
2022/06/14 04:30:29;;;;;;;;;;;;;;;12.34;100.00;98472.73;1779285;80;21436;-84
2022/06/14 04:33:04;;;;;;;;;;;;;;;12.41;100.00;98478.13;1782073;79;20121;-85
2022/06/14 04:35:43;;;;;;;;;;;;;;;12.41;100.00;98476.77;1782125;80;21966;-85
2022/06/14 04:38:15;;;;;;;;;;;;;;;12.48;100.00;98479.19;1781883;79;20190;-85
2022/06/14 04:40:45;;;;;;;;;;;;;;;12.57;100.00;98487.56;1735833;80;20176;-85
2022/06/14 04:43:14;;;;;;;;;;;;;;;12.63;100.00;98488.58;1774212;80;20167;-85
2022/06/14 04:45:43;;;;;;;;;;;;;;;12.65;100.00;98482.34;1781147;80;20192;-85
2022/06/14 04:48:12;;;;;;;;;;;;;;;12.74;100.00;98483.10;1781937;79;21053;-84
2022/06/14 04:50:41;;;;;;;;;;;;;;;12.93;99.88;98488.94;1752245;80;20182;-85
2022/06/14 04:53:21;;;;;;;;;;;;;;;13.18;98.70;98487.92;1781568;80;20542;-84
2022/06/14 04:55:50;;;;;;;;;;;;;;;13.30;98.19;98486.76;1741940;80;20500;-84
2022/06/14 04:58:23;;;;;;;;;;;;;;;13.37;97.22;98492.69;1781841;79;20129;-84
2022/06/14 05:00:52;;;;;;;;;;;;;;;13.47;97.67;98492.03;1781702;80;21120;-84
2022/06/14 05:03:21;;;;;;;;;;;;;;;13.48;96.80;98495.56;1777749;80;20203;-85
2022/06/14 05:05:56;;;;;;;;;;;;;;;13.52;96.68;98497.45;1748303;80;20174;-85
2022/06/14 05:08:31;;;;;;;;;;;;;;;13.70;96.33;98494.54;1781675;79;20764;-85
2022/06/14 05:11:01;;;;;;;;;;;;;;;13.87;95.92;98499.53;1781420;79;20263;-85
2022/06/14 05:13:46;;;;;;;;;;;;;;;14.05;94.78;98497.97;1759289;80;21293;-85
2022/06/14 05:16:32;;;;;;;;;;;;;;;14.19;94.34;98506.27;1772370;80;20181;-84
2022/06/14 05:19:09;;;;;;;;;;;;;;;14.36;92.05;98503.31;1780847;80;20172;-85
2022/06/14 05:21:41;;;;;;;;;;;;;;;14.37;92.54;98502.77;1766643;80;20163;-85
2022/06/14 05:24:07;;;;;;;;;;;;;;;14.55;91.99;98513.45;1756492;80;20184;-85
2022/06/14 05:26:43;;;;;;;;;;;;;;;14.57;91.46;98510.69;1782009;80;21129;-85
2022/06/14 05:29:15;;;;;;;;;;;;;;;14.62;92.21;98514.72;1776129;80;20203;-85
2022/06/14 05:31:50;;;;;;;;;;;;;;;14.72;92.00;98512.40;1756634;80;20513;-85
2022/06/14 05:34:36;;;;;;;;;;;;;;;14.83;92.07;98515.23;1769289;79;20622;-85
2022/06/14 05:37:25;;;;;;;;;;;;;;;14.97;91.83;98511.77;1748837;80;20125;-84
2022/06/14 05:39:57;;;;;;;;;;;;;;;14.97;90.68;98511.77;1781304;80;21192;-84
2022/06/14 05:42:25;;;;;;;;;;;;;;;14.96;90.99;98510.96;1764759;79;20187;-85
2022/06/14 05:44:54;;;;;;;;;;;;;;;14.91;86.57;98510.47;1775577;79;20159;-84
2022/06/14 05:47:26;;;;;;;;;;;;;;;14.81;83.09;98511.19;1764216;79;20417;-86
2022/06/14 05:49:55;;;;;;;;;;;;;;;14.74;83.70;98514.27;1757668;80;20215;-85
2022/06/14 05:52:44;;;;;;;;;;;;;;;14.82;87.18;98512.80;1777056;79;21163;-85
2022/06/14 05:55:21;;;;;;;;;;;;;;;14.84;88.04;98511.95;1778643;80;20184;-84
2022/06/14 05:57:55;;;;;;;;;;;;;;;14.90;87.66;98513.50;1769791;79;20274;-83
2022/06/14 06:00:25;;;;;;;;;;;;;;;14.88;84.84;98515.16;1774956;80;20234;-83
2022/06/14 06:02:58;;;;;;;;;;;;;;;14.85;82.55;98516.29;1768054;79;20206;-83
2022/06/14 06:05:28;;;;;;;;;;;;;;;14.84;83.55;98515.48;1777126;79;21153;-83
2022/06/14 06:07:58;;;;;;;;;;;;;;;15.00;85.84;98511.98;1777454;79;20178;-83
2022/06/14 06:10:26;;;;;;;;;;;;;;;15.02;83.59;98512.48;1768992;79;20130;-83
2022/06/14 06:12:55;;;;;;;;;;;;;;;15.06;82.25;98513.53;1755192;80;20468;-83
2022/06/14 06:15:27;;;;;;;;;;;;;;;15.07;82.40;98517.06;1778570;79;20176;-83
2022/06/14 06:17:55;;;;;;;;;;;;;;;15.13;83.42;98517.25;1779966;79;21127;-83
2022/06/14 06:20:43;;;;;;;;;;;;;;;15.23;84.02;98511.07;1773996;79;20191;-83
2022/06/14 06:23:29;;;;;;;;;;;;;;;15.24;84.52;98514.05;1770258;79;20446;-85
2022/06/14 06:25:56;;;;;;;;;;;;;;;15.68;82.12;98518.80;1770800;80;20136;-84
2022/06/14 06:28:35;;;;;;;;;;;;;;;15.89;79.34;98512.39;1750722;79;20231;-85
2022/06/14 06:31:07;;;;;;;;;;;;;;;15.79;73.99;98519.67;1775561;79;21958;-85
2022/06/14 06:33:34;;;;;;;;;;;;;;;15.78;74.37;98523.52;1768057;79;20223;-85
2022/06/14 06:36:16;;;;;;;;;;;;;;;15.63;73.14;98530.61;1771646;79;20441;-85
2022/06/14 06:38:49;;;;;;;;;;;;;;;15.73;75.47;98527.72;1757515;79;20162;-85
2022/06/14 06:44:06;;;;;;;;;;;;;;;15.97;72.38;98519.33;1770589;79;21199;-85
2022/06/14 06:46:35;;;;;;;;;;;;;;;16.18;72.41;98520.31;1772095;79;20226;-85
2022/06/14 06:49:01;;;;;;;;;;;;;;;16.33;71.80;98524.13;1764565;79;20172;-86
2022/06/14 06:51:35;;;;;;;;;;;;;;;16.59;72.75;98527.12;1769848;79;20151;-85
2022/06/14 06:54:04;;;;;;;;;;;;;;;16.64;68.65;98521.53;1749173;79;20155;-85
2022/06/14 06:56:32;;;;;;;;;;;;;;;16.52;66.10;98527.53;1767584;78;21017;-85
2022/06/14 06:59:01;;;;;;;;;;;;;;;16.45;66.44;98532.60;1772536;80;20448;-85
2022/06/14 07:01:31;;;;;;;;;;;;;;;16.45;66.33;98531.23;1773032;79;20194;-85
2022/06/14 07:04:14;;;;;;;;;;;;;;;16.49;64.74;98535.00;1772289;79;20239;-85
2022/06/14 07:06:42;;;;;;;;;;;;;;;16.21;63.74;98538.28;1772745;79;20354;-85
2022/06/14 07:09:26;;;;;;;;;;;;;;;16.47;65.22;98535.03;1772744;80;21071;-85
2022/06/14 07:11:59;;;;;;;;;;;;;;;16.63;64.93;98534.40;1771086;78;20181;-85
2022/06/14 07:14:27;;;;;;;;;;;;;;;16.68;66.23;98532.69;1770620;79;20172;-85
2022/06/14 07:17:02;;;;;;;;;;;;;;;16.78;62.68;98531.12;1771915;79;20491;-85
2022/06/14 07:19:45;;;;;;;;;;;;;;;16.93;65.45;98528.05;1765536;79;20600;-85
2022/06/14 07:22:17;;;;;;;;;;;;;;;17.27;66.21;98530.81;1731024;81;21160;-86
2022/06/14 07:25:08;;;;;;;;;;;;;;;17.38;63.00;98525.33;1777149;79;20179;-86
2022/06/14 07:27:36;;;;;;;;;;;;;;;17.39;62.26;98521.46;1769975;79;20633;-86
2022/06/14 07:30:08;;;;;;;;;;;;;;;17.32;60.24;98530.67;1768165;79;20239;-85
2022/06/14 07:32:37;;;;;;;;;;;;;;;17.64;62.40;98529.60;1762572;80;20136;-85
2022/06/14 07:35:03;;;;;;;;;;;;;;;17.61;61.57;98526.94;1766341;79;21147;-86
2022/06/14 07:37:36;;;;;;;;;;;;;;;17.74;61.47;98532.91;1771220;79;20497;-86
2022/06/14 07:40:05;;;;;;;;;;;;;;;17.90;59.04;98530.58;1768114;79;20228;-85
2022/06/14 07:42:43;;;;;;;;;;;;;;;18.18;58.80;98524.31;1776270;79;21894;-85
2022/06/14 07:45:24;;;;;;;;;;;;;;;18.11;57.73;98518.48;1767987;79;20231;-86
2022/06/14 07:48:00;;;;;;;;;;;;;;;18.64;59.43;98520.83;1774813;79;21173;-86
2022/06/14 07:50:53;;;;;;;;;;;;;;;18.55;58.32;98521.63;1772892;79;20195;-86
2022/06/14 07:53:36;;;;;;;;;;;;;;;18.57;57.11;98528.97;1765282;79;20154;-86
2022/06/14 07:56:07;;;;;;;;;;;;;;;18.31;57.04;98530.27;1761858;79;20545;-85
2022/06/14 07:58:45;;;;;;;;;;;;;;;18.60;54.84;98526.94;1734383;80;20592;-86
2022/06/14 08:01:14;;;;;;;;;;;;;;;19.05;54.15;98524.52;1739401;80;20998;-85
2022/06/14 08:03:56;;;;;;;;;;;;;;;19.20;51.86;98526.78;1758570;80;20137;-86
2022/06/14 08:06:37;;;;;;;;;;;;;;;19.87;52.10;98528.16;1771019;78;20136;-86
2022/06/14 08:09:18;;;;;;;;;;;;;;;20.49;51.99;98517.95;1774565;79;20217;-86
2022/06/14 08:11:48;;;;;;;;;;;;;;;20.17;51.01;98527.09;1752415;79;20356;-86
2022/06/14 08:14:20;;;;;;;;;;;;;;;19.62;51.92;98533.39;1774727;79;21129;-87
2022/06/14 08:16:45;;;;;;;;;;;;;;;19.85;50.24;98529.86;1769590;79;20455;-86
2022/06/14 08:19:15;;;;;;;;;;;;;;;19.76;47.52;98531.03;1768454;79;20198;-86
2022/06/14 08:21:43;;;;;;;;;;;;;;;20.34;47.11;98530.33;1755235;79;20207;-86
2022/06/14 08:24:13;;;;;;;;;;;;;;;20.58;46.84;98529.72;1752390;79;20723;-83
2022/06/14 08:26:42;;;;;;;;;;;;;;;20.45;45.76;98530.78;1726781;80;21265;-84
2022/06/14 08:29:27;;;;;;;;;;;;;;;21.17;47.61;98528.25;1748818;79;20541;-84
2022/06/14 08:32:14;;;;;;;;;;;;;;;21.43;46.90;98526.67;1765528;79;20150;-84
2022/06/14 08:35:01;;;;;;;;;;;;;;;21.29;45.04;98523.41;1737025;81;20182;-84
2022/06/14 08:37:42;;;;;;;;;;;;;;;21.75;43.60;98525.63;1763824;78;20330;-84
2022/06/14 08:40:12;;;;;;;;;;;;;;;22.19;42.99;98524.81;1773448;79;21096;-84
2022/06/14 08:42:41;;;;;;;;;;;;;;;21.44;41.56;98521.96;1765671;79;20625;-84
2022/06/14 08:45:16;;;;;;;;;;;;;;;22.02;40.60;98523.61;1768124;79;20645;-84
2022/06/14 08:47:52;;;;;;;;;;;;;;;22.17;40.62;98510.56;1767148;79;20180;-84
2022/06/14 08:50:45;;;;;;;;;;;;;;;22.96;41.04;98516.61;1769958;79;20225;-84
2022/06/14 08:53:39;;;;;;;;;;;;;;;22.65;39.03;98510.90;1775095;79;20982;-84
2022/06/14 08:56:12;;;;;;;;;;;;;;;22.48;41.41;98510.57;1760297;78;20280;-84
2022/06/14 08:58:59;;;;;;;;;;;;;;;22.23;41.83;98509.19;1778878;78;20145;-84
2022/06/14 09:01:29;;;;;;;;;;;;;;;21.78;41.40;98512.53;1780643;78;20439;-84
2022/06/14 09:04:16;;;;;;;;;;;;;;;21.98;42.73;98502.58;1782430;78;20238;-84
2022/06/14 09:06:55;;;;;;;;;;;;;;;22.05;44.51;98498.11;1776829;78;21270;-84
2022/06/14 09:09:46;;;;;;;;;;;;;;;22.44;43.96;98486.97;1781991;78;20177;-84
2022/06/14 09:12:37;;;;;;;;;;;;;;;21.36;43.91;98490.58;1775389;78;20210;-84
2022/06/14 09:15:21;;;;;;;;;;;;;;;20.91;44.14;98487.14;1776222;79;20191;-84
2022/06/14 09:18:12;;;;;;;;;;;;;;;21.56;44.43;98484.80;1774195;79;20344;-84
2022/06/14 09:20:42;;;;;;;;;;;;;;;22.24;43.55;98479.63;1788033;79;21106;-84
2022/06/14 09:23:20;;;;;;;;;;;;;;;22.42;42.77;98485.72;1786236;78;20339;-84
2022/06/14 09:26:07;;;;;;;;;;;;;;;22.09;41.02;98487.21;1774286;79;20212;-84
2022/06/14 09:28:37;;;;;;;;;;;;;;;22.08;40.64;98493.88;1777642;78;20195;-84
2022/06/14 09:31:25;;;;;;;;;;;;;;;22.44;42.62;98484.21;1782992;79;20284;-84
2022/06/14 09:33:54;;;;;;;;;;;;;;;22.37;42.62;98479.84;1778041;78;21093;-83
2022/06/14 09:36:41;;;;;;;;;;;;;;;21.29;41.55;98484.83;1766432;79;20435;-83
2022/06/14 09:39:31;;;;;;;;;;;;;;;20.71;43.35;98490.70;1778835;79;20693;-84
2022/06/14 09:42:18;;;;;;;;;;;;;;;20.03;46.31;98493.48;1777602;80;20192;-83
2022/06/14 09:44:53;;;;;;;;;;;;;;;19.53;47.54;98495.47;1762888;80;20145;-83
2022/06/14 09:47:46;;;;;;;;;;;;;;;19.37;48.28;98495.17;1734632;80;21694;-83
2022/06/14 09:50:37;;;;;;;;;;;;;;;19.15;50.02;98496.75;1765884;79;20192;-83
2022/06/14 09:53:39;;;;;;;;;;;;;;;18.90;49.57;98503.86;1763845;78;20188;-83
2022/06/14 09:56:30;;;;;;;;;;;;;;;18.97;49.83;98500.60;1767954;79;20269;-83
2022/06/14 09:59:03;;;;;;;;;;;;;;;18.70;50.13;98498.41;1767744;79;20486;-83
2022/06/14 10:01:50;;;;;;;;;;;;;;;18.50;51.07;98492.95;1769748;79;21060;-83
2022/06/14 10:04:44;;;;;;;;;;;;;;;18.58;52.38;98492.72;1776629;80;20209;-83
2022/06/14 10:07:38;;;;;;;;;;;;;;;19.01;51.92;98490.03;1767831;79;20193;-84
2022/06/14 10:10:10;;;;;;;;;;;;;;;20.27;49.91;98484.06;1768593;79;20198;-84
2022/06/14 10:12:46;;;;;;;;;;;;;;;21.57;46.85;98486.41;1769813;79;20219;-84
2022/06/14 10:15:24;;;;;;;;;;;;;;;21.93;43.30;98489.23;1761286;80;21138;-83
2022/06/14 10:18:27;;;;;;;;;;;;;;;22.64;42.42;98483.83;1768940;79;20553;-86
2022/06/14 10:21:12;;;;;;;;;;;;;;;21.60;43.13;98489.85;1757632;79;20730;-86
2022/06/14 10:23:53;;;;;;;;;;;;;;;20.58;45.66;98489.00;1752864;79;20249;-86
2022/06/14 10:29:37;;;;;;;;;;;;;;;20.93;46.49;98489.55;1775475;78;21028;-86
2022/06/14 10:32:19;;;;;;;;;;;;;;;20.84;47.52;98496.50;1775495;78;20526;-87
2022/06/14 10:34:52;;;;;;;;;;;;;;;20.47;47.40;98494.89;1768492;79;20198;-86
2022/06/14 10:37:39;;;;;;;;;;;;;;;20.28;48.34;98486.24;1763585;79;21095;-84
2022/06/14 10:40:33;;;;;;;;;;;;;;;20.14;48.41;98486.46;1767288;78;20155;-83
2022/06/14 10:43:08;;;;;;;;;;;;;;;19.73;48.31;98492.61;1771308;78;22005;-83
2022/06/14 10:45:49;;;;;;;;;;;;;;;20.06;49.49;98488.69;1773839;79;20202;-83
2022/06/14 10:48:27;;;;;;;;;;;;;;;20.12;47.95;98493.44;1767962;79;20296;-83
2022/06/14 10:51:25;;;;;;;;;;;;;;;20.02;47.96;98490.50;1768272;80;20148;-83
2022/06/14 10:54:00;;;;;;;;;;;;;;;20.32;48.02;98490.50;1772880;78;20152;-83
2022/06/14 10:56:39;;;;;;;;;;;;;;;19.87;47.36;98499.28;1770677;79;21738;-83
2022/06/14 10:59:23;;;;;;;;;;;;;;;20.03;47.39;98496.80;1770902;79;20263;-83
2022/06/14 11:01:53;;;;;;;;;;;;;;;20.74;47.10;98484.52;1772740;80;20206;-83
2022/06/14 11:04:28;;;;;;;;;;;;;;;21.60;44.53;98492.61;1766744;80;20152;-83
2022/06/14 11:07:16;;;;;;;;;;;;;;;22.62;42.20;98483.38;1770954;79;20183;-86
2022/06/14 11:09:48;;;;;;;;;;;;;;;22.06;41.54;98485.12;1777545;79;21119;-83
2022/06/14 11:12:27;;;;;;;;;;;;;;;22.79;38.47;98490.02;1765582;80;20191;-83
2022/06/14 11:15:11;;;;;;;;;;;;;;;21.99;40.36;98484.87;1774185;80;20397;-83
2022/06/14 11:17:59;;;;;;;;;;;;;;;21.82;42.39;98476.23;1770900;79;20460;-83
2022/06/14 11:20:40;;;;;;;;;;;;;;;21.28;43.63;98481.27;1769646;79;21259;-83
2022/06/14 11:23:31;;;;;;;;;;;;;;;20.42;45.89;98483.23;1777596;79;22954;-83
2022/06/14 11:26:09;;;;;;;;;;;;;;;20.69;44.71;98484.73;1772797;79;20164;-83
2022/06/14 11:28:45;;;;;;;;;;;;;;;20.50;44.24;98487.91;1777339;78;20154;-83
2022/06/14 11:31:29;;;;;;;;;;;;;;;21.05;43.60;98482.74;1773519;80;20846;-83
2022/06/14 11:34:32;;;;;;;;;;;;;;;20.60;45.68;98482.61;1776796;79;20168;-83
2022/06/14 11:37:08;;;;;;;;;;;;;;;21.67;43.82;98483.21;1772857;79;21162;-83
2022/06/14 11:39:52;;;;;;;;;;;;;;;22.32;41.32;98477.33;1772751;79;20203;-83
2022/06/14 11:42:28;;;;;;;;;;;;;;;21.16;41.87;98473.48;1778014;79;20200;-83
2022/06/14 11:45:09;;;;;;;;;;;;;;;20.82;44.07;98476.77;1747704;80;20684;-83
2022/06/14 11:47:38;;;;;;;;;;;;;;;20.45;44.85;98475.16;1764330;79;20242;-83
2022/06/14 11:50:11;;;;;;;;;;;;;;;19.79;46.07;98481.67;1768127;79;21064;-83
2022/06/14 11:53:14;;;;;;;;;;;;;;;22.20;39.56;98478.12;1758066;79;20516;-83
2022/06/14 11:55:49;;;;;;;;;;;;;;;22.99;41.37;98473.09;1743318;80;20605;-86
2022/06/14 11:58:39;;;;;;;;;;;;;;;21.89;40.29;98475.91;1758455;80;20770;-86
2022/06/14 12:01:15;;;;;;;;;;;;;;;20.77;41.99;98472.28;1766804;79;20266;-87
2022/06/14 12:03:51;;;;;;;;;;;;;;;20.61;43.81;98478.72;1736451;80;21746;-83
2022/06/14 12:06:29;;;;;;;;;;;;;;;20.36;44.48;98479.08;1761625;80;20302;-82
2022/06/14 12:09:19;;;;;;;;;;;;;;;20.13;44.47;98473.05;1755533;79;20416;-83
2022/06/14 12:11:54;;;;;;;;;;;;;;;20.55;44.37;98468.46;1767205;79;21768;-83
2022/06/14 12:14:30;;;;;;;;;;;;;;;21.11;42.88;98463.49;1733838;79;20420;-83
2022/06/14 12:17:25;;;;;;;;;;;;;;;21.39;42.54;98468.67;1779267;79;21124;-83
2022/06/14 12:19:55;;;;;;;;;;;;;;;24.39;40.07;98470.67;1772653;79;20196;-83
2022/06/14 12:22:26;;;;;;;;;;;;;;;25.65;34.99;98466.02;1746752;80;20182;-83
2022/06/14 12:27:40;;;;;;;;;;;;;;;27.45;30.56;98463.56;1773606;80;20192;-84
2022/06/14 12:30:06;;;;;;;;;;;;;;;26.05;31.16;98459.98;1776548;79;21105;-83
2022/06/14 12:32:35;;;;;;;;;;;;;;;24.94;33.26;98468.14;1786633;78;20503;-84
2022/06/14 12:35:07;;;;;;;;;;;;;;;24.14;34.42;98470.05;1775895;80;20239;-83
2022/06/14 12:37:53;;;;;;;;;;;;;;;25.72;33.36;98463.41;1782208;79;21062;-83
2022/06/14 12:40:40;;;;;;;;;;;;;;;26.70;33.44;98452.88;1750006;81;20256;-83
2022/06/14 12:43:24;;;;;;;;;;;;;;;26.09;33.95;98451.14;1775247;79;21153;-83
2022/06/14 12:46:06;;;;;;;;;;;;;;;24.40;34.09;98450.12;1768030;79;20187;-83
2022/06/14 12:48:55;;;;;;;;;;;;;;;23.78;36.86;98465.01;1774567;80;20179;-83
2022/06/14 12:51:37;;;;;;;;;;;;;;;23.23;38.28;98465.84;1775512;79;20469;-83
2022/06/14 12:54:16;;;;;;;;;;;;;;;25.05;35.18;98447.63;1783755;79;20438;-87
2022/06/14 12:57:00;;;;;;;;;;;;;;;25.80;32.77;98449.04;1771286;79;21341;-88
2022/06/14 12:59:36;;;;;;;;;;;;;;;26.27;30.80;98452.01;1745912;79;20149;-87
2022/06/14 13:02:22;;;;;;;;;;;;;;;27.82;28.98;98443.28;1773998;78;20208;-88
2022/06/14 13:04:50;;;;;;;;;;;;;;;27.39;28.48;98444.22;1748107;79;20157;-88
2022/06/14 13:07:20;;;;;;;;;;;;;;;25.27;30.89;98446.06;1756123;79;20172;-88
2022/06/14 13:10:07;;;;;;;;;;;;;;;23.48;34.53;98455.47;1769983;78;21158;-87
2022/06/14 13:12:54;;;;;;;;;;;;;;;22.26;38.38;98448.34;1757496;79;20246;-83
2022/06/14 13:15:29;;;;;;;;;;;;;;;22.93;37.55;98446.86;1770733;78;20181;-84
2022/06/14 13:18:18;;;;;;;;;;;;;;;23.74;37.26;98447.50;1770464;80;20709;-83
2022/06/14 13:21:00;;;;;;;;;;;;;;;24.45;34.52;98455.40;1754868;80;20170;-83
2022/06/14 13:23:47;;;;;;;;;;;;;;;25.54;33.84;98449.73;1779652;79;21148;-83
2022/06/14 13:26:33;;;;;;;;;;;;;;;24.05;34.28;98449.47;1761191;80;20164;-83
2022/06/14 13:29:12;;;;;;;;;;;;;;;24.63;34.06;98439.98;1743878;80;20198;-84
2022/06/14 13:32:09;;;;;;;;;;;;;;;27.08;30.51;98432.92;1761068;80;20210;-84
2022/06/14 13:34:59;;;;;;;;;;;;;;;25.20;34.61;98433.44;1719274;81;20194;-84
2022/06/14 13:37:32;;;;;;;;;;;;;;;23.19;35.96;98447.79;1715835;82;20568;-83
2022/06/14 13:40:04;;;;;;;;;;;;;;;22.12;38.28;98451.44;1738041;81;20190;-83
2022/06/14 13:42:36;;;;;;;;;;;;;;;21.73;39.68;98441.06;1725470;81;20432;-83
2022/06/14 13:45:09;;;;;;;;;;;;;;;22.18;38.72;98443.17;1736219;81;20231;-88
2022/06/14 13:47:48;;;;;;;;;;;;;;;23.55;36.34;98432.95;1704714;82;21174;-88
2022/06/14 13:50:20;;;;;;;;;;;;;;;25.00;34.32;98432.04;1712029;82;21096;-86
2022/06/14 13:52:55;;;;;;;;;;;;;;;25.99;33.80;98425.40;1772775;79;20215;-88